Time;durP1;ratioP1;P1;durP2;ratioP2;P2;SDS_P1;SDS_P2;PMS_P1;PMS_P2;Temp;Humidity;BMP_temperature;BMP_pressure;BME280_temperature;BME280_humidity;BME280_pressure;Samples;Min_cycle;Max_cycle;Signal;HPM_P1;HPM_P2
2023/04/17 00:01:59;;;;;;;3.67;2.33;;;;;;;;;;5072561;28;20234;-47
2023/04/17 00:04:26;;;;;;;2.97;1.80;;;;;;;;;;5072979;28;20542;-46
2023/04/17 00:06:53;;;;;;;5.82;2.40;;;;;;;;;;5073109;28;20225;-46
2023/04/17 00:09:20;;;;;;;3.25;1.77;;;;;;;;;;5072990;28;20282;-47
2023/04/17 00:11:47;;;;;;;3.75;1.98;;;;;;;;;;5072827;28;20203;-47
2023/04/17 00:14:14;;;;;;;4.07;2.30;;;;;;;;;;5073076;28;20196;-47
2023/04/17 00:16:42;;;;;;;3.28;2.00;;;;;;;;;;5072768;28;20203;-47
2023/04/17 00:19:09;;;;;;;6.72;1.90;;;;;;;;;;5073105;28;20237;-47
2023/04/17 00:21:36;;;;;;;3.10;2.08;;;;;;;;;;5072830;28;20199;-46
2023/04/17 00:24:03;;;;;;;3.22;2.00;;;;;;;;;;5076332;28;20238;-47
2023/04/17 00:26:33;;;;;;;2.85;1.85;;;;;;;;;;5076409;28;20204;-48
2023/04/17 00:29:00;;;;;;;2.03;1.80;;;;;;;;;;5076411;28;20286;-47
2023/04/17 00:31:30;;;;;;;3.70;2.08;;;;;;;;;;5076530;28;20667;-47
2023/04/17 00:33:57;;;;;;;3.40;2.25;;;;;;;;;;5076254;28;20659;-49
2023/04/17 00:36:26;;;;;;;3.35;2.22;;;;;;;;;;5076171;28;20203;-49
2023/04/17 00:38:53;;;;;;;4.20;2.65;;;;;;;;;;5058404;28;20605;-47
2023/04/17 00:41:20;;;;;;;2.65;2.10;;;;;;;;;;5058615;28;20260;-49
2023/04/17 00:43:47;;;;;;;2.30;1.98;;;;;;;;;;5058421;28;20227;-47
2023/04/17 00:46:15;;;;;;;3.88;2.40;;;;;;;;;;5076035;28;20203;-47
2023/04/17 00:48:43;;;;;;;4.05;2.83;;;;;;;;;;5058623;28;20207;-47
2023/04/17 00:51:10;;;;;;;3.70;2.17;;;;;;;;;;5058011;28;20204;-47
2023/04/17 00:53:37;;;;;;;2.53;1.80;;;;;;;;;;5058317;28;20261;-48
2023/04/17 00:56:05;;;;;;;3.83;2.30;;;;;;;;;;5041829;28;20207;-46
2023/04/17 00:58:32;;;;;;;3.75;2.10;;;;;;;;;;5076092;28;20210;-50
2023/04/17 01:01:00;;;;;;;4.07;2.67;;;;;;;;;;5075825;28;20206;-48
2023/04/17 01:03:28;;;;;;;3.67;2.22;;;;;;;;;;5058243;28;20219;-47
2023/04/17 01:05:57;;;;;;;4.05;2.30;;;;;;;;;;5058244;28;20218;-47
2023/04/17 01:08:24;;;;;;;3.55;2.42;;;;;;;;;;5058081;28;20223;-46
2023/04/17 01:10:51;;;;;;;4.50;2.50;;;;;;;;;;5057886;28;20253;-47
2023/04/17 01:13:18;;;;;;;3.88;2.25;;;;;;;;;;5057756;28;20234;-47
2023/04/17 01:15:46;;;;;;;3.70;2.55;;;;;;;;;;5058386;28;20230;-46
2023/04/17 01:18:13;;;;;;;4.55;2.75;;;;;;;;;;5044384;28;20700;-48
2023/04/17 01:20:40;;;;;;;3.80;2.33;;;;;;;;;;5055707;28;20211;-48
2023/04/17 01:23:07;;;;;;;3.53;2.60;;;;;;;;;;5055615;28;20285;-48
2023/04/17 01:25:35;;;;;;;3.38;2.40;;;;;;;;;;5037873;28;20196;-47
2023/04/17 01:28:02;;;;;;;3.65;2.30;;;;;;;;;;5037631;28;20201;-47
2023/04/17 01:30:29;;;;;;;3.92;2.60;;;;;;;;;;5037665;28;20683;-47
2023/04/17 01:33:05;;;;;;;2.92;1.90;;;;;;;;;;5037485;28;20192;-48
2023/04/17 01:35:32;;;;;;;4.10;2.83;;;;;;;;;;5054622;28;20211;-48
2023/04/17 01:37:59;;;;;;;4.25;2.50;;;;;;;;;;5037337;28;20210;-48
2023/04/17 01:40:27;;;;;;;4.95;2.80;;;;;;;;;;5037599;28;20204;-46
2023/04/17 01:42:54;;;;;;;3.63;2.15;;;;;;;;;;5037549;28;20274;-49
2023/04/17 01:45:21;;;;;;;7.60;2.92;;;;;;;;;;5037350;28;20204;-48
2023/04/17 01:47:49;;;;;;;4.85;2.67;;;;;;;;;;5055208;28;20203;-47
2023/04/17 01:50:17;;;;;;;3.78;2.08;;;;;;;;;;5021225;28;20219;-46
2023/04/17 01:52:44;;;;;;;2.47;1.92;;;;;;;;;;5054858;28;20200;-46
2023/04/17 01:55:11;;;;;;;2.88;2.13;;;;;;;;;;5037277;28;20208;-47
2023/04/17 01:57:38;;;;;;;3.70;2.40;;;;;;;;;;5055017;28;20246;-48
2023/04/17 02:00:08;;;;;;;3.65;2.55;;;;;;;;;;5054565;28;20204;-50
2023/04/17 02:02:44;;;;;;;3.95;2.70;;;;;;;;;;5036835;28;20688;-47
2023/04/17 02:05:12;;;;;;;3.17;2.25;;;;;;;;;;5054574;28;20202;-46
2023/04/17 02:07:39;;;;;;;3.85;2.55;;;;;;;;;;5054759;28;20204;-47
2023/04/17 02:10:06;;;;;;;4.32;2.95;;;;;;;;;;5054731;28;20200;-46
2023/04/17 02:12:35;;;;;;;4.32;2.55;;;;;;;;;;5036752;28;20235;-47
2023/04/17 02:15:03;;;;;;;3.80;2.38;;;;;;;;;;5036724;28;20302;-47
2023/04/17 02:17:29;;;;;;;3.65;2.35;;;;;;;;;;5020268;28;20240;-46
2023/04/17 02:19:57;;;;;;;4.43;2.50;;;;;;;;;;5054294;28;20692;-47
2023/04/17 02:22:24;;;;;;;3.22;2.35;;;;;;;;;;5054337;28;20208;-48
2023/04/17 02:24:51;;;;;;;4.60;2.92;;;;;;;;;;5036832;28;20204;-46
2023/04/17 02:27:18;;;;;;;5.15;2.95;;;;;;;;;;5054536;28;20196;-48
2023/04/17 02:29:45;;;;;;;5.03;2.95;;;;;;;;;;5036621;28;20200;-47
2023/04/17 02:32:14;;;;;;;3.40;2.42;;;;;;;;;;5036433;28;20200;-46
2023/04/17 02:34:42;;;;;;;4.32;2.42;;;;;;;;;;5036397;28;20211;-47
2023/04/17 02:37:09;;;;;;;4.60;2.42;;;;;;;;;;5036187;28;20231;-47
2023/04/17 02:39:37;;;;;;;3.45;2.60;;;;;;;;;;5036271;28;20212;-47
2023/04/17 02:42:04;;;;;;;4.53;2.95;;;;;;;;;;5036652;28;20200;-47
2023/04/17 02:44:31;;;;;;;4.35;2.88;;;;;;;;;;5036387;28;20235;-47
2023/04/17 02:46:59;;;;;;;4.25;2.67;;;;;;;;;;5035348;28;20631;-47
2023/04/17 02:49:30;;;;;;;4.45;2.92;;;;;;;;;;5036104;28;20193;-47
2023/04/17 02:51:58;;;;;;;5.40;3.00;;;;;;;;;;5036086;28;20572;-48
2023/04/17 02:54:25;;;;;;;4.70;2.90;;;;;;;;;;5035987;28;20207;-48
2023/04/17 02:56:52;;;;;;;5.38;3.13;;;;;;;;;;5036073;28;20203;-47
2023/04/17 02:59:19;;;;;;;3.95;2.70;;;;;;;;;;5053708;28;20279;-47
2023/04/17 03:01:47;;;;;;;3.55;2.17;;;;;;;;;;5035893;28;20211;-48
2023/04/17 03:04:17;;;;;;;4.47;2.70;;;;;;;;;;5032278;28;20704;-47
2023/04/17 03:06:44;;;;;;;4.82;2.92;;;;;;;;;;5015798;28;20212;-47
2023/04/17 03:09:13;;;;;;;5.45;3.03;;;;;;;;;;5016327;28;20209;-47
2023/04/17 03:11:40;;;;;;;5.07;3.03;;;;;;;;;;5033309;28;20205;-47
2023/04/17 03:14:08;;;;;;;6.40;3.40;;;;;;;;;;5033370;28;20215;-47
2023/04/17 03:16:34;;;;;;;4.00;3.28;;;;;;;;;;5015593;28;20335;-47
2023/04/17 03:19:02;;;;;;;5.65;2.80;;;;;;;;;;5015759;28;20205;-48
2023/04/17 03:21:30;;;;;;;4.72;2.58;;;;;;;;;;5015847;28;20203;-47
2023/04/17 03:23:58;;;;;;;7.80;3.63;;;;;;;;;;5015730;28;20232;-47
2023/04/17 03:26:25;;;;;;;9.45;4.95;;;;;;;;;;5031771;28;20601;-60
2023/04/17 03:28:53;;;;;;;10.98;7.13;;;;;;;;;;5044732;28;20208;-48
2023/04/17 03:31:22;;;;;;;8.05;4.05;;;;;;;;;;5015802;28;20296;-47
2023/04/17 03:33:51;;;;;;;5.13;3.08;;;;;;;;;;5016053;28;20708;-47
2023/04/17 03:36:18;;;;;;;5.10;3.15;;;;;;;;;;5035093;28;20570;-47
2023/04/17 03:38:46;;;;;;;6.95;3.10;;;;;;;;;;5035546;28;20212;-47
2023/04/17 03:41:15;;;;;;;5.93;3.13;;;;;;;;;;5035581;28;20199;-46
2023/04/17 03:43:43;;;;;;;6.28;2.83;;;;;;;;;;5035092;28;20228;-48
2023/04/17 03:46:10;;;;;;;4.60;3.10;;;;;;;;;;5052790;28;20207;-49
2023/04/17 03:48:38;;;;;;;3.70;2.30;;;;;;;;;;5034461;28;20208;-48
2023/04/17 03:51:05;;;;;;;3.92;2.80;;;;;;;;;;5033322;28;20227;-49
2023/04/17 03:53:34;;;;;;;6.65;3.33;;;;;;;;;;5017406;28;20257;-48
2023/04/17 03:56:04;;;;;;;5.93;2.53;;;;;;;;;;5033885;28;20196;-47
2023/04/17 03:58:36;;;;;;;5.35;2.80;;;;;;;;;;5016762;28;20224;-47
2023/04/17 04:01:09;;;;;;;5.20;3.35;;;;;;;;;;5036481;28;20322;-47
2023/04/17 04:03:40;;;;;;;3.17;2.17;;;;;;;;;;5042912;28;20234;-49
2023/04/17 04:06:08;;;;;;;7.95;2.92;;;;;;;;;;5057822;28;20322;-49
2023/04/17 04:08:36;;;;;;;4.15;2.75;;;;;;;;;;5057172;28;20239;-50
2023/04/17 04:11:03;;;;;;;4.80;3.22;;;;;;;;;;5058060;28;20257;-46
2023/04/17 04:13:36;;;;;;;5.38;2.92;;;;;;;;;;5057455;28;20227;-46
2023/04/17 04:16:04;;;;;;;4.20;2.97;;;;;;;;;;5075699;28;20219;-47
2023/04/17 04:18:35;;;;;;;3.72;2.58;;;;;;;;;;5054805;28;20234;-47
2023/04/17 04:21:04;;;;;;;5.15;3.05;;;;;;;;;;5044863;28;20216;-47
2023/04/17 04:23:38;;;;;;;2.63;2.13;;;;;;;;;;5038149;28;20239;-46
2023/04/17 04:26:06;;;;;;;6.90;3.00;;;;;;;;;;5038016;28;20723;-46
2023/04/17 04:28:41;;;;;;;3.55;2.40;;;;;;;;;;5037893;28;20634;-46
2023/04/17 04:31:19;;;;;;;4.63;2.40;;;;;;;;;;5050999;28;20281;-47
2023/04/17 04:33:47;;;;;;;4.03;2.65;;;;;;;;;;5057973;28;20223;-46
2023/04/17 04:36:19;;;;;;;5.53;3.22;;;;;;;;;;5058034;28;20277;-46
2023/04/17 04:38:58;;;;;;;3.40;2.40;;;;;;;;;;5058432;28;20235;-46
2023/04/17 04:41:32;;;;;;;4.38;2.92;;;;;;;;;;5067506;28;20575;-47
2023/04/17 04:44:02;;;;;;;4.35;2.40;;;;;;;;;;5065898;28;20241;-52
2023/04/17 04:46:31;;;;;;;3.78;2.30;;;;;;;;;;5076800;28;20223;-47
2023/04/17 04:48:58;;;;;;;4.78;3.05;;;;;;;;;;5054440;28;20236;-48
2023/04/17 04:51:26;;;;;;;3.08;2.28;;;;;;;;;;5066490;28;20222;-51
2023/04/17 04:53:54;;;;;;;4.30;2.50;;;;;;;;;;5060413;28;20217;-46
2023/04/17 04:56:22;;;;;;;4.15;2.50;;;;;;;;;;5061917;28;20623;-48
2023/04/17 04:58:50;;;;;;;4.78;2.40;;;;;;;;;;5083627;28;20214;-47
2023/04/17 05:01:18;;;;;;;4.10;2.92;;;;;;;;;;5076748;28;20250;-46
2023/04/17 05:03:45;;;;;;;4.38;2.50;;;;;;;;;;5075108;28;20225;-46
2023/04/17 05:06:19;;;;;;;6.05;3.50;;;;;;;;;;5061796;28;20302;-46
2023/04/17 05:08:52;;;;;;;3.42;2.45;;;;;;;;;;5061441;28;20224;-49
2023/04/17 05:11:20;;;;;;;3.17;2.00;;;;;;;;;;5065893;28;20606;-46
2023/04/17 05:13:47;;;;;;;4.03;2.85;;;;;;;;;;5090064;28;20767;-46
2023/04/17 05:16:20;;;;;;;4.25;2.58;;;;;;;;;;5073347;28;20243;-47
2023/04/17 05:18:47;;;;;;;4.18;2.53;;;;;;;;;;5077125;28;20722;-46
2023/04/17 05:21:18;;;;;;;4.88;2.65;;;;;;;;;;5051944;28;20556;-47
2023/04/17 05:23:49;;;;;;;5.07;3.28;;;;;;;;;;5037071;28;20266;-46
2023/04/17 05:26:16;;;;;;;3.92;2.60;;;;;;;;;;5054364;28;20621;-46
2023/04/17 05:28:44;;;;;;;6.10;2.67;;;;;;;;;;5054662;28;20207;-46
2023/04/17 05:31:16;;;;;;;4.68;2.60;;;;;;;;;;5036901;28;20227;-50
2023/04/17 05:33:45;;;;;;;4.38;2.42;;;;;;;;;;5021568;28;20215;-47
2023/04/17 05:36:12;;;;;;;2.67;2.05;;;;;;;;;;5055138;28;20208;-46
2023/04/17 05:38:40;;;;;;;3.70;2.55;;;;;;;;;;5055046;28;20203;-46
2023/04/17 05:41:10;;;;;;;5.18;2.40;;;;;;;;;;5037271;28;20239;-48
2023/04/17 05:43:37;;;;;;;3.22;2.40;;;;;;;;;;5037519;28;20228;-47
2023/04/17 05:46:05;;;;;;;2.80;2.03;;;;;;;;;;5039830;28;20207;-46
2023/04/17 05:48:32;;;;;;;3.55;2.28;;;;;;;;;;5056006;28;20203;-47
2023/04/17 05:51:01;;;;;;;4.32;2.63;;;;;;;;;;5057237;28;20210;-47
2023/04/17 05:53:30;;;;;;;4.10;2.45;;;;;;;;;;5028298;28;20208;-47
2023/04/17 05:55:58;;;;;;;4.13;2.67;;;;;;;;;;5037480;28;20207;-45
2023/04/17 05:58:26;;;;;;;7.82;4.40;;;;;;;;;;5036999;28;20196;-46
2023/04/17 06:00:56;;;;;;;3.88;2.55;;;;;;;;;;5037314;28;20600;-47
2023/04/17 06:03:25;;;;;;;5.45;2.85;;;;;;;;;;5020784;28;20660;-47
2023/04/17 06:06:19;;;;;;;3.22;2.58;;;;;;;;;;5052403;28;20607;-47
2023/04/17 06:08:47;;;;;;;3.90;2.55;;;;;;;;;;5043645;28;20199;-48
2023/04/17 06:11:14;;;;;;;4.43;2.60;;;;;;;;;;5070231;28;20221;-48
2023/04/17 06:13:42;;;;;;;4.20;2.58;;;;;;;;;;5059102;28;20542;-47
2023/04/17 06:16:09;;;;;;;4.13;2.22;;;;;;;;;;5065679;28;20323;-49
2023/04/17 06:18:39;;;;;;;3.88;2.47;;;;;;;;;;5039879;28;20762;-49
2023/04/17 06:21:06;;;;;;;2.97;2.38;;;;;;;;;;5036639;28;20204;-46
2023/04/17 06:23:35;;;;;;;3.08;2.58;;;;;;;;;;5036325;28;20668;-46
2023/04/17 06:26:02;;;;;;;2.65;2.22;;;;;;;;;;5036615;28;20223;-48
2023/04/17 06:28:29;;;;;;;5.20;2.45;;;;;;;;;;5020443;28;20255;-46
2023/04/17 06:30:58;;;;;;;3.72;2.30;;;;;;;;;;5036083;28;20226;-47
2023/04/17 06:33:25;;;;;;;3.20;2.13;;;;;;;;;;5036428;28;20204;-47
2023/04/17 06:35:54;;;;;;;4.53;2.22;;;;;;;;;;5036313;28;20234;-47
2023/04/17 06:38:32;;;;;;;2.58;2.03;;;;;;;;;;5036623;28;20242;-47
2023/04/17 06:41:00;;;;;;;8.25;2.33;;;;;;;;;;5040635;28;20287;-47
2023/04/17 06:43:27;;;;;;;3.95;2.50;;;;;;;;;;5048805;28;20203;-47
2023/04/17 06:45:54;;;;;;;4.25;2.47;;;;;;;;;;5036298;28;20227;-47
2023/04/17 06:48:21;;;;;;;3.13;2.40;;;;;;;;;;5036424;28;20200;-48
2023/04/17 06:50:48;;;;;;;4.47;2.00;;;;;;;;;;5053734;28;20204;-46
2023/04/17 06:53:16;;;;;;;2.67;1.92;;;;;;;;;;5036130;28;20203;-45
2023/04/17 06:55:43;;;;;;;2.90;2.25;;;;;;;;;;5053919;28;20200;-45
2023/04/17 06:58:11;;;;;;;4.38;2.15;;;;;;;;;;5053752;28;20207;-45
2023/04/17 07:00:38;;;;;;;2.38;1.88;;;;;;;;;;5048301;28;20216;-47
2023/04/17 07:03:06;;;;;;;3.03;2.15;;;;;;;;;;5061307;28;20231;-48
2023/04/17 07:05:34;;;;;;;3.20;2.10;;;;;;;;;;5055174;28;20232;-49
2023/04/17 07:08:01;;;;;;;3.88;2.13;;;;;;;;;;5040970;28;20228;-47
2023/04/17 07:10:28;;;;;;;3.47;2.35;;;;;;;;;;5040140;28;20244;-47
2023/04/17 07:12:55;;;;;;;3.90;2.20;;;;;;;;;;5040232;28;20216;-45
2023/04/17 07:15:22;;;;;;;3.00;2.10;;;;;;;;;;5041202;28;20763;-47
2023/04/17 07:17:50;;;;;;;3.45;1.90;;;;;;;;;;5033192;28;20244;-46
2023/04/17 07:20:17;;;;;;;3.90;2.15;;;;;;;;;;5032518;28;20220;-47
2023/04/17 07:22:44;;;;;;;2.72;2.20;;;;;;;;;;5032776;28;20216;-48
2023/04/17 07:25:11;;;;;;;5.82;2.60;;;;;;;;;;5014710;28;20240;-52
2023/04/17 07:27:38;;;;;;;6.13;2.58;;;;;;;;;;5032930;28;20232;-48
2023/04/17 07:30:07;;;;;;;3.78;2.15;;;;;;;;;;5031107;28;20239;-51
2023/04/17 07:32:34;;;;;;;3.55;2.13;;;;;;;;;;5032165;28;20724;-47
2023/04/17 07:35:03;;;;;;;3.53;2.75;;;;;;;;;;5032480;28;20645;-46
2023/04/17 07:37:31;;;;;;;3.58;2.42;;;;;;;;;;5032536;28;20239;-46
2023/04/17 07:39:58;;;;;;;3.15;2.00;;;;;;;;;;5032817;28;20225;-50
2023/04/17 07:42:27;;;;;;;3.33;2.03;;;;;;;;;;5032720;28;20242;-45
2023/04/17 07:44:54;;;;;;;3.67;2.40;;;;;;;;;;5046341;28;20738;-46
2023/04/17 07:47:22;;;;;;;4.05;2.53;;;;;;;;;;5072367;28;20224;-46
2023/04/17 07:49:50;;;;;;;5.05;2.50;;;;;;;;;;5072399;28;20222;-48
2023/04/17 07:52:17;;;;;;;3.60;2.17;;;;;;;;;;5072120;28;20276;-45
2023/04/17 07:54:44;;;;;;;2.53;1.98;;;;;;;;;;5072348;28;20265;-47
2023/04/17 07:57:13;;;;;;;2.78;1.95;;;;;;;;;;5071991;28;20219;-47
2023/04/17 07:59:40;;;;;;;4.97;2.70;;;;;;;;;;5071979;28;20322;-47
2023/04/17 08:02:08;;;;;;;4.32;2.58;;;;;;;;;;5072044;28;20223;-49
2023/04/17 08:04:36;;;;;;;3.25;2.20;;;;;;;;;;5072230;28;20235;-46
2023/04/17 08:07:04;;;;;;;3.70;2.25;;;;;;;;;;5072125;28;20223;-51
2023/04/17 08:09:30;;;;;;;3.63;1.85;;;;;;;;;;5072052;28;20603;-46
2023/04/17 08:11:58;;;;;;;2.65;2.00;;;;;;;;;;5071846;28;20223;-45
2023/04/17 08:14:25;;;;;;;5.18;2.65;;;;;;;;;;5068589;28;20224;-49
2023/04/17 08:16:52;;;;;;;4.13;2.33;;;;;;;;;;5053958;28;20224;-45
2023/04/17 08:19:19;;;;;;;3.90;2.03;;;;;;;;;;5071691;28;20273;-47
2023/04/17 08:21:47;;;;;;;3.92;2.25;;;;;;;;;;5072061;28;20244;-48
2023/04/17 08:24:15;;;;;;;3.70;2.47;;;;;;;;;;5071801;28;20232;-46
2023/04/17 08:26:46;;;;;;;4.18;2.17;;;;;;;;;;5072112;28;20294;-47
2023/04/17 08:29:13;;;;;;;2.88;2.00;;;;;;;;;;5071519;28;20223;-47
2023/04/17 08:31:41;;;;;;;4.20;2.63;;;;;;;;;;5071902;28;20227;-47
2023/04/17 08:34:08;;;;;;;2.90;1.77;;;;;;;;;;5072141;28;20260;-48
2023/04/17 08:36:38;;;;;;;2.80;2.25;;;;;;;;;;5072107;28;20231;-48
2023/04/17 08:39:05;;;;;;;3.35;2.03;;;;;;;;;;5071846;28;20886;-52
2023/04/17 08:41:38;;;;;;;2.30;1.90;;;;;;;;;;5069300;28;20240;-48
2023/04/17 08:44:05;;;;;;;3.75;2.03;;;;;;;;;;5054289;28;20266;-47
2023/04/17 08:46:33;;;;;;;3.30;1.70;;;;;;;;;;5095028;28;20219;-52
2023/04/17 08:49:02;;;;;;;2.67;2.10;;;;;;;;;;5045851;28;20220;-48
2023/04/17 08:51:30;;;;;;;2.90;1.98;;;;;;;;;;5074772;28;20231;-48
2023/04/17 08:53:57;;;;;;;3.15;2.13;;;;;;;;;;5095425;28;20214;-48
2023/04/17 08:56:25;;;;;;;2.78;1.60;;;;;;;;;;5095585;28;20215;-46
2023/04/17 08:58:52;;;;;;;2.05;1.75;;;;;;;;;;5095056;28;20646;-48
2023/04/17 09:01:19;;;;;;;3.10;2.05;;;;;;;;;;5094826;28;20219;-47
2023/04/17 09:03:48;;;;;;;3.33;1.77;;;;;;;;;;5094830;28;20241;-47
2023/04/17 09:06:16;;;;;;;2.45;1.50;;;;;;;;;;5095367;28;20242;-48
2023/04/17 09:09:02;;;;;;;4.57;1.88;;;;;;;;;;5094875;28;20722;-48
2023/04/17 09:11:30;;;;;;;2.22;1.55;;;;;;;;;;5095284;28;20214;-47
2023/04/17 09:13:57;;;;;;;3.10;1.60;;;;;;;;;;5094714;28;20699;-47
2023/04/17 09:16:24;;;;;;;2.25;1.60;;;;;;;;;;5055573;28;20235;-48
2023/04/17 09:19:04;;;;;;;2.50;1.67;;;;;;;;;;5072337;28;20627;-48
2023/04/17 09:21:31;;;;;;;3.25;1.98;;;;;;;;;;5074644;28;20238;-47
2023/04/17 09:23:58;;;;;;;2.80;2.15;;;;;;;;;;5074921;28;20232;-47
2023/04/17 09:26:27;;;;;;;2.83;1.77;;;;;;;;;;5074317;28;20235;-47
2023/04/17 09:29:10;;;;;;;2.00;1.65;;;;;;;;;;5074170;28;20761;-51
2023/04/17 09:31:40;;;;;;;2.88;1.77;;;;;;;;;;5074347;28;20230;-48
2023/04/17 09:34:10;;;;;;;3.67;1.70;;;;;;;;;;5074134;28;20318;-51
2023/04/17 09:36:40;;;;;;;2.15;1.50;;;;;;;;;;5074712;28;20223;-51
2023/04/17 09:39:23;;;;;;;2.42;1.73;;;;;;;;;;5074402;28;20215;-47
2023/04/17 09:42:02;;;;;;;2.25;1.40;;;;;;;;;;5074208;28;20696;-47
2023/04/17 09:44:30;;;;;;;1.77;1.50;;;;;;;;;;5057138;28;20322;-52
2023/04/17 09:46:57;;;;;;;3.50;2.10;;;;;;;;;;5064458;28;20309;-46
2023/04/17 09:49:48;;;;;;;2.75;1.48;;;;;;;;;;5079773;28;20242;-48
2023/04/17 09:52:15;;;;;;;2.25;1.73;;;;;;;;;;5082455;28;20227;-48
2023/04/17 09:54:45;;;;;;;1.88;1.65;;;;;;;;;;5084578;28;20249;-47
2023/04/17 09:57:12;;;;;;;2.63;1.70;;;;;;;;;;5066023;28;20218;-47
2023/04/17 09:59:40;;;;;;;2.50;1.67;;;;;;;;;;5082583;28;20275;-47
2023/04/17 10:02:08;;;;;;;2.28;1.63;;;;;;;;;;5082010;28;20219;-50
2023/04/17 10:04:38;;;;;;;2.30;1.67;;;;;;;;;;5084496;28;20652;-53
2023/04/17 10:07:06;;;;;;;1.90;1.65;;;;;;;;;;5081661;28;20222;-51
2023/04/17 10:09:33;;;;;;;2.42;1.48;;;;;;;;;;5090605;28;20229;-49
2023/04/17 10:12:02;;;;;;;2.65;1.88;;;;;;;;;;5093635;28;20703;-51
2023/04/17 10:14:32;;;;;;;3.53;1.58;;;;;;;;;;5075940;28;20280;-48
2023/04/17 10:17:23;;;;;;;2.30;1.83;;;;;;;;;;5094284;28;20566;-48
2023/04/17 10:19:50;;;;;;;2.03;1.30;;;;;;;;;;5094248;28;20218;-47
2023/04/17 10:22:18;;;;;;;2.03;1.65;;;;;;;;;;5091440;28;20222;-48
2023/04/17 10:24:47;;;;;;;3.17;1.85;;;;;;;;;;5080804;28;20303;-49
2023/04/17 10:27:24;;;;;;;3.08;1.90;;;;;;;;;;5077858;28;20557;-47
2023/04/17 10:29:59;;;;;;;3.55;1.92;;;;;;;;;;5073764;28;20227;-47
2023/04/17 10:32:30;;;;;;;2.30;1.52;;;;;;;;;;5073573;28;20230;-47
2023/04/17 10:35:03;;;;;;;2.45;1.92;;;;;;;;;;5073669;28;20627;-46
2023/04/17 10:37:45;;;;;;;2.97;2.10;;;;;;;;;;5056194;28;20235;-47
2023/04/17 10:40:19;;;;;;;3.17;2.17;;;;;;;;;;5073312;28;20231;-46
2023/04/17 10:43:12;;;;;;;3.15;2.03;;;;;;;;;;5056600;28;20227;-48
2023/04/17 10:45:57;;;;;;;2.53;1.88;;;;;;;;;;5086403;28;20260;-47
2023/04/17 10:48:55;;;;;;;5.13;1.73;;;;;;;;;;5093194;28;20239;-47
2023/04/17 10:51:22;;;;;;;1.95;1.38;;;;;;;;;;5093698;28;20252;-47
2023/04/17 10:54:05;;;;;;;2.00;1.70;;;;;;;;;;5093620;28;20233;-47
2023/04/17 10:56:48;;;;;;;2.80;2.00;;;;;;;;;;5093116;28;20219;-56
2023/04/17 10:59:19;;;;;;;2.10;1.38;;;;;;;;;;5092857;28;20706;-48
2023/04/17 11:01:46;;;;;;;3.13;2.15;;;;;;;;;;5093133;28;20222;-47
2023/04/17 11:04:21;;;;;;;2.47;1.55;;;;;;;;;;5093321;28;20222;-47
2023/04/17 11:06:48;;;;;;;3.15;1.85;;;;;;;;;;5092422;28;20286;-47
2023/04/17 11:09:19;;;;;;;4.78;2.05;;;;;;;;;;5084911;28;20758;-48
2023/04/17 11:11:46;;;;;;;2.28;1.80;;;;;;;;;;5072948;28;20288;-46
2023/04/17 11:14:18;;;;;;;2.58;1.67;;;;;;;;;;5065115;28;20239;-47
2023/04/17 11:16:46;;;;;;;3.40;2.05;;;;;;;;;;5069431;28;20222;-49
2023/04/17 11:19:24;;;;;;;2.50;1.90;;;;;;;;;;5072391;28;20707;-47
2023/04/17 11:21:53;;;;;;;2.10;1.70;;;;;;;;;;5084609;28;20214;-47
2023/04/17 11:24:22;;;;;;;3.63;2.08;;;;;;;;;;5092392;28;20226;-48
2023/04/17 11:26:49;;;;;;;3.80;2.08;;;;;;;;;;5092378;28;20234;-47
2023/04/17 11:29:17;;;;;;;2.58;1.45;;;;;;;;;;5092436;28;20268;-48
2023/04/17 11:31:45;;;;;;;3.42;2.17;;;;;;;;;;5092612;28;20222;-48
2023/04/17 11:34:17;;;;;;;3.88;2.15;;;;;;;;;;5092348;28;20257;-50
2023/04/17 11:36:51;;;;;;;3.90;2.08;;;;;;;;;;5072572;28;20226;-47
2023/04/17 11:39:23;;;;;;;6.57;2.75;;;;;;;;;;5072332;28;20691;-48
2023/04/17 11:41:51;;;;;;;3.08;2.17;;;;;;;;;;5071896;28;20226;-48
2023/04/17 11:44:19;;;;;;;4.50;2.42;;;;;;;;;;5079118;28;20218;-55
2023/04/17 11:46:54;;;;;;;3.90;2.38;;;;;;;;;;5078553;28;20222;-48
2023/04/17 11:49:28;;;;;;;2.60;1.95;;;;;;;;;;5086884;28;20218;-49
2023/04/17 11:51:58;;;;;;;5.22;2.55;;;;;;;;;;5092762;28;20227;-52
2023/04/17 11:54:29;;;;;;;3.65;1.90;;;;;;;;;;5089914;28;20229;-48
2023/04/17 11:57:03;;;;;;;4.22;2.03;;;;;;;;;;5084177;28;20216;-49
2023/04/17 11:59:36;;;;;;;2.53;1.70;;;;;;;;;;5074427;28;20215;-49
2023/04/17 12:02:05;;;;;;;4.55;2.05;;;;;;;;;;5072155;28;20312;-52
2023/04/17 12:04:35;;;;;;;1.95;1.70;;;;;;;;;;5071481;28;20224;-50
2023/04/17 12:07:03;;;;;;;4.13;1.75;;;;;;;;;;5067798;28;20269;-52
2023/04/17 12:09:34;;;;;;;2.78;1.80;;;;;;;;;;5069250;28;20219;-48
2023/04/17 12:12:06;;;;;;;2.88;1.95;;;;;;;;;;5068585;28;20239;-49
2023/04/17 12:14:34;;;;;;;3.10;1.77;;;;;;;;;;5067721;28;20704;-48
2023/04/17 12:17:01;;;;;;;3.70;2.35;;;;;;;;;;5034485;28;20619;-48
2023/04/17 12:19:30;;;;;;;4.18;1.92;;;;;;;;;;5063242;28;20575;-48
2023/04/17 12:21:58;;;;;;;3.97;2.47;;;;;;;;;;5076156;28;20290;-50
2023/04/17 12:24:25;;;;;;;3.65;2.28;;;;;;;;;;5075914;28;20230;-50
2023/04/17 12:26:53;;;;;;;4.85;2.45;;;;;;;;;;5075058;28;20242;-48
2023/04/17 12:29:20;;;;;;;2.45;1.75;;;;;;;;;;5075289;28;20617;-48
2023/04/17 12:32:02;;;;;;;2.45;1.80;;;;;;;;;;5068769;28;20230;-49
2023/04/17 12:34:30;;;;;;;4.13;1.80;;;;;;;;;;5064083;28;20219;-49
2023/04/17 12:36:57;;;;;;;1.83;1.67;;;;;;;;;;5068197;28;20260;-49
2023/04/17 12:39:24;;;;;;;2.97;2.10;;;;;;;;;;5061827;28;20219;-48
2023/04/17 12:41:51;;;;;;;4.00;2.28;;;;;;;;;;5071558;28;20250;-49
2023/04/17 12:44:18;;;;;;;2.45;1.75;;;;;;;;;;5064922;28;20219;-52
2023/04/17 12:46:45;;;;;;;3.17;1.88;;;;;;;;;;5059798;28;20231;-50
2023/04/17 12:49:13;;;;;;;2.00;1.42;;;;;;;;;;5061704;28;20227;-49
2023/04/17 12:51:40;;;;;;;2.22;1.60;;;;;;;;;;5057383;28;20643;-50
2023/04/17 12:54:07;;;;;;;3.00;1.83;;;;;;;;;;5084413;28;20268;-53
2023/04/17 12:56:35;;;;;;;2.92;1.42;;;;;;;;;;5066444;28;20585;-49
2023/04/17 12:59:02;;;;;;;1.98;1.60;;;;;;;;;;5069126;28;20214;-48
2023/04/17 13:01:29;;;;;;;3.22;1.67;;;;;;;;;;5084649;28;20248;-52
2023/04/17 13:03:56;;;;;;;3.38;1.73;;;;;;;;;;5077830;28;20234;-49
2023/04/17 13:06:24;;;;;;;3.55;2.05;;;;;;;;;;5074110;28;20266;-49
2023/04/17 13:08:51;;;;;;;2.80;1.88;;;;;;;;;;5075081;28;20227;-48
2023/04/17 13:11:18;;;;;;;2.25;1.58;;;;;;;;;;5094301;28;20222;-53
2023/04/17 13:13:46;;;;;;;1.83;1.67;;;;;;;;;;5092459;28;20230;-48
2023/04/17 13:16:13;;;;;;;1.92;1.45;;;;;;;;;;5058186;28;20243;-49
2023/04/17 13:18:40;;;;;;;2.20;1.80;;;;;;;;;;5066862;28;20227;-54
2023/04/17 13:21:08;;;;;;;3.10;1.75;;;;;;;;;;5074577;28;20223;-49
2023/04/17 13:23:35;;;;;;;2.13;1.80;;;;;;;;;;5074773;28;20227;-50
2023/04/17 13:26:02;;;;;;;3.53;2.28;;;;;;;;;;5074489;28;20609;-49
2023/04/17 13:28:29;;;;;;;2.17;1.67;;;;;;;;;;5056473;28;20223;-53
2023/04/17 13:30:56;;;;;;;3.60;2.22;;;;;;;;;;5067888;28;20230;-49
2023/04/17 13:33:24;;;;;;;3.33;2.17;;;;;;;;;;5057311;28;20215;-53
2023/04/17 13:35:52;;;;;;;2.50;1.63;;;;;;;;;;5078167;28;20285;-50
2023/04/17 13:38:20;;;;;;;4.32;1.95;;;;;;;;;;5082101;28;20227;-53
2023/04/17 13:40:46;;;;;;;2.28;1.67;;;;;;;;;;5076574;28;20215;-49
2023/04/17 13:43:14;;;;;;;2.10;1.58;;;;;;;;;;5082776;28;20273;-50
2023/04/17 13:45:42;;;;;;;3.53;2.35;;;;;;;;;;5077468;28;20698;-53
2023/04/17 13:48:10;;;;;;;4.30;2.30;;;;;;;;;;5070251;28;20223;-49
2023/04/17 13:50:38;;;;;;;3.00;2.05;;;;;;;;;;5061923;28;20626;-48
2023/04/17 13:53:05;;;;;;;3.17;1.75;;;;;;;;;;5058352;28;20296;-47
2023/04/17 13:55:35;;;;;;;3.92;1.92;;;;;;;;;;5069970;28;20223;-47
2023/04/17 13:58:02;;;;;;;3.13;1.80;;;;;;;;;;5035288;28;20235;-49
2023/04/17 14:00:29;;;;;;;2.38;1.92;;;;;;;;;;5080079;28;20214;-50
2023/04/17 14:02:56;;;;;;;2.03;1.48;;;;;;;;;;5080483;28;20234;-48
2023/04/17 14:05:24;;;;;;;2.05;1.58;;;;;;;;;;5076323;28;20305;-48
2023/04/17 14:07:51;;;;;;;5.40;1.92;;;;;;;;;;5082907;28;20223;-50
2023/04/17 14:10:18;;;;;;;1.77;1.35;;;;;;;;;;5078533;28;20703;-48
2023/04/17 14:12:45;;;;;;;2.72;1.85;;;;;;;;;;5083084;28;20737;-47
2023/04/17 14:15:12;;;;;;;2.72;2.08;;;;;;;;;;5080696;28;20734;-51
2023/04/17 14:17:41;;;;;;;2.70;1.50;;;;;;;;;;5084175;28;20231;-49
2023/04/17 14:20:10;;;;;;;2.83;1.98;;;;;;;;;;5077765;28;20294;-52
2023/04/17 14:22:37;;;;;;;3.30;1.50;;;;;;;;;;5083352;28;20283;-47
2023/04/17 14:25:05;;;;;;;17.52;6.18;;;;;;;;;;5081576;28;20313;-49
2023/04/17 14:27:35;;;;;;;7.50;3.35;;;;;;;;;;5081778;28;20223;-47
2023/04/17 14:30:02;;;;;;;15.85;6.53;;;;;;;;;;5083236;28;20662;-47
2023/04/17 14:32:30;;;;;;;2.92;1.83;;;;;;;;;;5082716;28;20269;-51
2023/04/17 14:34:57;;;;;;;6.05;3.53;;;;;;;;;;5073974;28;20591;-47
2023/04/17 14:37:25;;;;;;;3.03;1.98;;;;;;;;;;5074211;28;20222;-49
2023/04/17 14:39:52;;;;;;;2.67;1.95;;;;;;;;;;5081686;28;20223;-49
2023/04/17 14:42:19;;;;;;;5.30;1.95;;;;;;;;;;5078590;28;20218;-48
2023/04/17 14:44:46;;;;;;;5.38;1.95;;;;;;;;;;5074843;28;20222;-47
2023/04/17 14:47:13;;;;;;;4.43;2.15;;;;;;;;;;5073484;28;20243;-47
2023/04/17 14:49:40;;;;;;;2.45;1.90;;;;;;;;;;5055551;28;20219;-45
2023/04/17 14:52:08;;;;;;;3.08;2.30;;;;;;;;;;5072881;28;20711;-50
2023/04/17 14:54:35;;;;;;;3.83;2.25;;;;;;;;;;5064028;28;20556;-48